Hushpuckena, Mississippi
Current Conditions -  °F | °C
As of 9:35 AM on Saturday 25 Oct 2014 (Local Time) from KRNV Reporting Station
Clear Clear  
Wind Chill: 66°   Ceiling: Unl
Heat Index: 66°   Visibility: 10mi
Dew Point: 59°   Wind: 8mph
Humidity: 78%   Direction: 260°W
Pressure: 30.15"   Gusts: NA
Location:  33.976°N, 90.7349°W
Report Text: KRNV 251435Z AUTO 26007KT 10SM CLR 19/15 A3015 RMK AO2 T01880149
Loading
Personal Weather Stations






























Interactive Weather Map
Tropical Storm Tracking
New forecast layout! Learn more

10-Day Weather Forecast

Advertisements
Track Severe Weather on mobile